Aeroporto :
LOGIN :

Iscrizione | Disclaimer

   EN    FR    IT 

 










Sommario :    VFR   VFR Marginale   IFR   IFR Intensivo   IFR Molto Intensivo
Visibilità : 
Base nubi : 
>= 8 km
>= 3000ft
5 / 8 km
1000 / 3000 ft
1500m / 5 km
500 / 1000 ft
800 / 1500m
200 / 500 ft
< 800m
< 200 ft
Simboli :   Temporali  Nebbia  Neve Forte  Precipitazioni Forti  Vento > 20 kt
SIGMETs :   Varie  Temporali  Ghiacco  Turbolenza  Onda orograficha  Ceneri Vulcaniche







- Altitudine del aeroporto : 25 ft
- Codice IATA : TPS


LICT - Vincenzo Florio Trapani

ULTIMO METAR :
  • 210455Z VRB02KT 9999 FEW025 04/02 Q1026 RMK FEW VIS MIN 9999 WIND THR13 08003KT BLU

METARs OBSOLETI :
  • 210355Z 09003KT 9999 FEW025 04/03 Q1025 RMK FEW VIS MIN 9999 WIND THR13 09004KT BLU
  • 210255Z 10003KT CAVOK 05/04 Q1025

TAF TAF LICT
Valido dal 21 a 06 ore il 21 a 15 ore UTC


210500Z 2106/2115 VRB03KT 9999 FEW020
BECMG 2109/2111 36010KT
Nessun NOTAM noto per questo aeroporto.
1 SIGMET conosciuto per la FIR Roma (LIRR) :
 
Ceneri vulcaniche
LIRR SIGMET 6 VALID 202351/210630 LIIB
LIRR ROMA FIR VA ERUPTION MT ETNA PSN N3744 E01500 VA CLD OBS AT 0000Z WI N3645 E01510 - N3649 E01445 - N3755 E01510 - N3745 E01525 - N3645 E01510 SFC/FL120 NC=



MetMap, La meteo Aeronautica in un colpo d'occhio ! - Copyright ORBIFLY Dicembre 2007 - Disclaimer

ORBIFLY MET'MAP TEAM :

Programmazione e sviluppo : Alexandra Zaïnal
Concezione e sviluppo : Baudouin d'Aumeries
Co-Programmazione e sviluppo : Marc-Olivier Méhu
Supporto tecnico e logistico : Manuel Goepfert
Aiuto per la traduzione : Arnaldo La Scala

Contatto : metmap@orbifly.com




FONTI E CREDITI :

   NOAA